Latest Coastal Weather Observations for Cape Jaffa

IDS60701

Issued at 6:55 pm CST Wednesday 17 September 2014 (issued every 10 minutes, with the page automatically refreshed every 10 minutes)

About coastal observations | Map of coastal stations | Coastal observations for SA | Marine services | Other Formats
Station Details ID: 026095 Name: THE LIMESTONE Lat: -36.97 Lon: 139.72 Height: 17.0 m
Data from the previous 72 hours. | See also: Recent months at Cape Jaffa
Date/Time
CST
Temp

°C
Wind Pressure Rain
since 9am
mm
Weather Cloud Vis
km
Sea
Height
m
Swell
Dir
 
Speed
knots
Gust
knots
hPa Trend Height
m
Period
s
Dir
17/06:30pm 11.5 SW 13 18 1022.6 - 0.0 - - - - - - -
17/06:00pm 11.4 SSW 13 18 1022.2 - 0.0 - - - - - - -
17/05:30pm 11.5 SW 13 17 1022.1 - 0.0 - - - - - - -
17/05:00pm 11.1 SSW 11 14 1021.7 - 0.0 - - - - - - -
17/04:30pm 11.7 SW 13 19 1021.6 - 0.0 - - - - - - -
17/04:00pm 11.6 SSW 12 15 1021.1 - 0.0 - - - - - - -
17/03:30pm 10.9 SW 11 18 1021.2 - 0.0 - - - - - - -
17/03:00pm 11.0 SW 20 26 1020.8 - 0.0 - - - - - - -
17/02:30pm 13.8 SW 15 20 1020.6 - 0.0 - - - - - - -
17/02:00pm 13.5 SW 17 23 1020.6 - 0.0 - - - - - - -
17/01:30pm 13.4 SW 15 21 1020.6 - 0.0 - - - - - - -
17/01:00pm 13.8 WSW 14 18 1020.6 - 0.0 - - - - - - -
17/12:30pm 13.5 SW 15 20 1020.6 - 0.0 - - - - - - -
17/12:00pm 13.3 SW 16 20 1020.7 - 0.0 - - - - - - -
17/11:30am 13.6 SW 16 22 1020.5 - 0.0 - - - - - - -
17/11:00am 13.2 SSW 17 21 1020.4 - 0.0 - - - - - - -
17/10:30am 12.9 SSW 20 26 1020.2 - 0.0 - - - - - - -
17/10:00am 12.4 SSW 20 26 1020.1 - 0.0 - - - - - - -
17/09:30am 13.2 SW 17 23 1019.7 - 0.0 - - - - - - -
17/09:00am 12.6 SW 17 22 1019.2 - 1.8 - - - - - - -
17/08:30am 12.3 SW 21 26 1018.8 - 1.8 - - - - - - -
17/08:00am 12.3 SW 18 23 1018.6 - 1.8 - - - - - - -
17/07:30am 11.9 SW 16 24 1017.9 - 1.8 - - - - - - -
17/07:00am 11.5 SW 14 19 1017.8 - 1.8 - - - - - - -
17/06:30am 11.5 SW 14 19 1017.4 - 1.8 - - - - - - -
17/06:00am 11.3 SW 15 21 1017.1 - 1.8 - - - - - - -
17/05:30am 11.3 SW 17 24 1016.7 - 1.8 - - - - - - -
17/05:00am 11.2 WSW 14 20 1016.6 - 1.8 - - - - - - -
17/04:30am 11.3 SW 16 23 1016.4 - 1.8 - - - - - - -
17/04:00am 11.4 SW 16 21 1016.2 - 1.8 - - - - - - -
17/03:30am 11.1 WSW 15 21 1016.1 - 1.8 - - - - - - -
17/03:00am 10.9 WSW 12 18 1016.1 - 1.8 Recent precip. - - - - - -
17/02:30am 11.4 WSW 16 20 1016.1 - 1.0 - - - - - - -
17/02:00am 11.4 WSW 15 20 1016.2 - 1.0 - - - - - - -
17/01:30am 10.3 SW 17 26 1016.4 - 1.0 - - - - - - -
17/01:23am 11.0 WSW 15 26 1016.1 - 1.0 - - - - - - -
17/01:00am 11.4 W 13 18 1016.5 - 1.0 - - - - - - -
17/12:30am 11.7 W 13 19 1016.6 - 1.0 - - - - - - -
17/12:00am 11.4 W 14 20 1016.6 - 1.0 - - - - - - -
 
Date/Time
CST
Temp

°C
Wind Pressure Rain
since 9am
mm
Weather Cloud Vis
km
Sea
Height
m
Swell
Dir
 
Speed
knots
Gust
knots
hPa Trend Height
m
Period
s
Dir
16/11:30pm 11.6 WSW 14 18 1016.6 - 1.0 - - - - - - -
16/11:00pm 11.5 WSW 11 14 1016.6 - 1.0 - - - - - - -
16/10:30pm 11.1 WSW 15 21 1016.6 - 1.0 - - - - - - -
16/10:00pm 11.6 WSW 16 21 1016.6 - 1.0 - - - - - - -
16/09:30pm 11.5 WSW 14 19 1016.2 - 1.0 - - - - - - -
16/09:00pm 11.4 WSW 11 15 1016.1 - 1.0 Recent precip. - - - - - -
16/08:30pm 10.9 SW 9 12 1016.2 - 1.0 - - - - - - -
16/08:00pm 11.4 SW 9 14 1015.9 - 0.6 - - - - - - -
16/07:30pm 11.5 SW 11 16 1015.9 - 0.6 - - - - - - -
16/07:00pm 11.5 WSW 10 13 1015.7 - 0.6 - - - - - - -
16/06:30pm 11.1 WSW 7 10 1015.6 - 0.6 - - - - - - -
16/06:00pm 11.0 WSW 13 18 1015.5 - 0.6 Rain - - - - - -
16/05:30pm 11.8 WSW 10 13 1015.3 - 0.4 - - - - - - -
16/05:00pm 12.6 W 9 12 1015.0 - 0.4 - - - - - - -
16/04:30pm 12.8 WSW 9 12 1015.0 - 0.4 - - - - - - -
16/04:00pm 11.8 W 10 14 1015.0 - 0.4 - - - - - - -
16/03:30pm 12.9 SW 7 10 1014.9 - 0.2 - - - - - - -
16/03:00pm 12.4 WSW 9 12 1014.8 - 0.2 Recent precip. - - - - - -
16/02:30pm 12.6 WSW 9 11 1014.9 - 0.2 - - - - - - -
16/02:00pm 14.5 WSW 11 14 1015.0 - 0.0 - - - - - - -
16/01:30pm 15.8 WSW 12 16 1015.0 - 0.0 - - - - - - -
16/01:00pm 14.4 W 13 16 1015.2 - 0.0 - - - - - - -
16/12:30pm 15.3 W 12 16 1015.3 - 0.0 - - - - - - -
16/12:00pm 15.6 W 13 15 1015.5 - 0.0 - - - - - - -
16/11:30am 15.5 WSW 13 16 1015.6 - 0.0 - - - - - - -
16/11:00am 15.1 WSW 10 13 1015.8 - 0.0 - - - - - - -
16/10:30am 14.2 W 8 10 1016.0 - 0.0 - - - - - - -
16/10:00am 13.5 WNW 11 13 1016.2 - 0.0 - - - - - - -
16/09:30am 14.6 WSW 11 15 1016.2 - 0.0 - - - - - - -
16/09:00am 14.2 WSW 11 14 1016.2 - 0.0 - - - - - - -
16/08:30am 13.9 WSW 10 13 1016.1 - 0.0 - - - - - - -
16/08:00am 13.1 WSW 9 12 1016.1 - 0.0 - - - - - - -
16/07:30am 13.5 WSW 9 11 1015.9 - 0.0 - - - - - - -
16/07:00am 12.6 SW 9 12 1015.6 - 0.0 - - - - - - -
16/06:30am 12.4 SW 9 13 1015.6 - 0.0 - - - - - - -
16/06:00am 11.6 SW 9 12 1015.4 - 0.0 - - - - - - -
16/05:30am 11.6 SW 10 16 1015.2 - 0.0 - - - - - - -
16/05:00am 11.9 SW 12 16 1015.1 - 0.0 - - - - - - -
16/04:30am 11.6 SW 11 16 1014.8 - 0.0 - - - - - - -
16/04:00am 11.5 SW 13 18 1014.5 - 0.0 - - - - - - -
16/03:30am 11.9 SW 14 18 1014.2 - 0.0 - - - - - - -
16/03:00am 12.0 SW 13 17 1014.1 - 0.0 - - - - - - -
16/02:30am 11.8 SW 15 18 1014.1 - 0.0 - - - - - - -
16/02:00am 11.8 SW 17 20 1014.1 - 0.0 - - - - - - -
16/01:30am 12.3 SSW 15 18 1014.4 - 0.0 - - - - - - -
16/01:00am 12.3 SSW 13 19 1014.5 - 0.0 - - - - - - -
16/12:30am 12.6 SSW 14 18 1014.7 - 0.0 - - - - - - -
16/12:00am 12.6 SSW 16 21 1014.5 - 0.0 - - - - - - -
 
Date/Time
CST
Temp

°C
Wind Pressure Rain
since 9am
mm
Weather Cloud Vis
km
Sea
Height
m
Swell
Dir
 
Speed
knots
Gust
knots
hPa Trend Height
m
Period
s
Dir
15/11:30pm 12.3 SSW 16 21 1014.6 - 0.0 - - - - - - -
15/11:00pm 12.5 SSW 18 22 1014.6 - 0.0 - - - - - - -
15/10:30pm 12.3 SSW 20 26 1014.6 - 0.0 - - - - - - -
15/10:00pm 12.9 SSW 18 22 1014.6 - 0.0 - - - - - - -
15/09:30pm 12.9 S 18 22 1014.6 - 0.0 - - - - - - -
15/09:00pm 12.8 S 21 24 1014.2 - 0.0 - - - - - - -
15/08:30pm 12.5 S 21 26 1014.0 - 0.0 - - - - - - -
15/08:00pm 13.1 S 20 26 1013.7 - 0.0 - - - - - - -
15/07:30pm 13.1 S 20 25 1013.4 - 0.0 - - - - - - -
15/07:00pm 13.2 S 22 27 1012.9 - 0.0 - - - - - - -
15/06:30pm 13.2 S 23 28 1012.5 - 0.0 - - - - - - -
15/06:00pm 13.1 S 24 30 1012.0 - 0.0 - - - - - - -
15/05:30pm 13.2 S 25 30 1011.4 - 0.0 - - - - - - -
15/05:00pm 13.7 S 25 29 1011.0 - 0.0 - - - - - - -
15/04:30pm 13.9 S 25 31 1010.6 - 0.0 - - - - - - -
15/04:00pm 14.4 S 27 32 1010.2 - 0.0 - - - - - - -
15/03:30pm 15.0 S 26 32 1009.6 - 0.0 - - - - - - -
15/03:00pm 14.6 S 28 35 1009.4 - 0.0 - - - - - - -
15/02:30pm 14.6 S 25 31 1009.2 - 0.0 - - - - - - -
15/02:00pm 15.5 S 26 30 1008.8 - 0.0 - - - - - - -
15/01:30pm 16.2 S 23 30 1008.6 - 0.0 - - - - - - -
15/01:00pm 16.1 S 23 29 1008.5 - 0.0 - - - - - - -
15/12:30pm 16.4 S 21 26 1008.3 - 0.0 - - - - - - -
15/12:00pm 15.2 S 23 29 1008.4 - 0.0 - - - - - - -
15/11:49am 15.7 S 19 27 1008.6 - 0.0 - - - - - - -
15/11:30am 17.9 SE 10 16 1009.0 - 0.0 - - - - - - -
15/11:00am 16.7 SE 11 17 1009.1 - 0.0 - - - - - - -
15/10:30am 16.7 SE 10 15 1009.1 - 0.0 - - - - - - -
15/10:00am 16.4 SE 11 17 1009.4 - 0.0 - - - - - - -
15/09:30am 15.8 SE 12 19 1009.6 - 0.0 - - - - - - -
15/09:00am 14.8 SE 13 18 1009.8 - 0.0 - - - - - - -
15/08:30am 14.1 SE 12 17 1009.7 - 0.0 - - - - - - -
15/08:00am 13.6 SE 12 17 1009.8 - 0.0 - - - - - - -
15/07:30am 12.7 SE 12 18 1009.9 - 0.0 - - - - - - -
15/07:00am 12.1 SE 11 16 1010.1 - 0.0 - - - - - - -
15/06:30am 11.4 ESE 10 18 1010.3 - 0.0 - - - - - - -
15/06:00am 11.1 SE 9 14 1010.4 - 0.0 - - - - - - -
15/05:30am 11.7 SE 9 14 1010.2 - 0.0 - - - - - - -
15/05:00am 12.2 ESE 13 21 1009.5 - 0.0 - - - - - - -
15/04:30am 12.3 ESE 14 22 1009.2 - 0.0 - - - - - - -
15/04:00am 11.9 ESE 10 17 1009.8 - 0.0 - - - - - - -
15/03:30am 12.2 ESE 11 15 1010.1 - 0.0 - - - - - - -
15/03:00am 12.2 ESE 12 17 1010.3 - 0.0 - - - - - - -
15/02:30am 12.3 ESE 11 19 1010.8 - 0.0 - - - - - - -
15/02:00am 12.7 ESE 10 17 1011.2 - 0.0 - - - - - - -
15/01:30am 12.7 ESE 11 15 1011.5 - 0.0 - - - - - - -
15/01:00am 12.6 E 13 18 1011.8 - 0.0 - - - - - - -
15/12:30am 12.6 E 12 15 1013.0 - 0.0 - - - - - - -
15/12:00am 12.6 E 12 15 1012.9 - 0.0 - - - - - - -
 
Date/Time
CST
Temp

°C
Wind Pressure Rain
since 9am
mm
Weather Cloud Vis
km
Sea
Height
m
Swell
Dir
 
Speed
knots
Gust
knots
hPa Trend Height
m
Period
s
Dir
14/11:30pm 12.7 E 11 16 1013.3 - 0.0 - - - - - - -
14/11:00pm 12.7 E 16 21 1012.9 - 0.0 - - - - - - -
14/10:30pm 12.9 E 14 21 1013.8 - 0.0 - - - - - - -
14/10:00pm 12.8 E 18 23 1013.7 - 0.0 - - - - - - -
14/09:30pm 13.2 E 15 22 1014.4 - 0.0 - - - - - - -
14/09:00pm 13.1 ESE 14 21 1014.5 - 0.0 - - - - - - -
14/08:30pm 13.0 ESE 13 19 1015.1 - 0.0 - - - - - - -
14/08:00pm 12.8 ESE 13 21 1015.2 - 0.0 - - - - - - -
14/07:30pm 12.2 SE 13 18 1016.0 - 0.0 - - - - - - -
14/07:00pm 12.9 SSE 9 13 1017.0 - 0.0 - - - - - - -

Other Formats:

Comma delimited format used in spreadsheet applications
http://www.bom.gov.au/fwo/IDS60701/IDS60701.94813.axf

JavaScript Object Notation format (JSON) in row-major order
http://www.bom.gov.au/fwo/IDS60701/IDS60701.94813.json